Time;durP1;ratioP1;P1;durP2;ratioP2;P2;SDS_P1;SDS_P2;PMS_P1;PMS_P2;Temp;Humidity;BMP_temperature;BMP_pressure;BME280_temperature;BME280_humidity;BME280_pressure;Samples;Min_cycle;Max_cycle;Signal;HPM_P1;HPM_P2
2021/07/27 00:00:45;;;;;;;4.47;4.18;;;21.20;99.90;;;;;;2114876;28;20387;-67
2021/07/27 00:01:46;;;;;;;4.57;4.18;;;21.20;99.90;;;;;;2114642;28;20058;-67
2021/07/27 00:02:46;;;;;;;4.65;4.22;;;21.20;99.90;;;;;;2114380;28;20102;-67
2021/07/27 00:03:47;;;;;;;4.20;3.53;;;21.20;99.90;;;;;;2114823;28;20064;-67
2021/07/27 00:04:47;;;;;;;4.57;3.90;;;21.20;99.90;;;;;;2114519;28;20081;-67
2021/07/27 00:05:48;;;;;;;4.85;4.00;;;21.20;99.90;;;;;;2114757;28;20030;-67
2021/07/27 00:06:48;;;;;;;4.72;4.32;;;21.20;99.90;;;;;;2114748;28;20015;-67
2021/07/27 00:07:49;;;;;;;5.10;4.05;;;21.10;99.90;;;;;;2115030;28;20543;-67
2021/07/27 00:08:49;;;;;;;4.80;4.30;;;21.10;99.90;;;;;;2114609;28;20027;-67
2021/07/27 00:09:50;;;;;;;4.93;4.43;;;21.20;99.90;;;;;;2114772;28;20027;-67
2021/07/27 00:10:50;;;;;;;4.78;4.20;;;21.10;99.90;;;;;;2114778;28;20475;-67
2021/07/27 00:11:51;;;;;;;7.00;4.65;;;21.20;99.90;;;;;;2107377;28;20042;-67
2021/07/27 00:12:51;;;;;;;4.15;3.75;;;21.10;99.90;;;;;;2105890;28;20035;-67
2021/07/27 00:13:52;;;;;;;4.95;4.15;;;21.10;99.90;;;;;;2106262;28;20471;-67
2021/07/27 00:14:53;;;;;;;5.10;4.53;;;21.10;99.90;;;;;;2105983;28;20020;-67
2021/07/27 00:15:54;;;;;;;5.28;4.72;;;21.10;99.90;;;;;;2106287;28;20016;-67
2021/07/27 00:16:54;;;;;;;5.43;4.90;;;21.10;99.90;;;;;;2106313;28;20021;-67
2021/07/27 00:17:55;;;;;;;6.15;5.05;;;21.10;99.90;;;;;;2106409;28;20406;-67
2021/07/27 00:18:55;;;;;;;7.63;5.70;;;21.10;99.90;;;;;;2106203;28;20024;-67
2021/07/27 00:19:56;;;;;;;6.80;5.25;;;21.10;99.90;;;;;;2106377;28;20035;-67
2021/07/27 00:20:59;;;;;;;5.80;5.07;;;21.10;99.90;;;;;;2106160;28;20490;-67
2021/07/27 00:21:59;;;;;;;5.55;5.00;;;21.10;99.90;;;;;;2106156;28;20020;-67
2021/07/27 00:23:00;;;;;;;8.60;5.50;;;21.10;99.90;;;;;;2105858;28;20050;-67
2021/07/27 00:24:01;;;;;;;7.97;5.13;;;21.10;99.90;;;;;;2106066;28;20072;-68
2021/07/27 00:25:02;;;;;;;5.50;4.70;;;21.10;99.90;;;;;;2106074;28;20074;-67
2021/07/27 00:26:09;;;;;;;6.38;5.10;;;21.00;99.90;;;;;;2106103;28;20016;-67
2021/07/27 00:27:10;;;;;;;6.05;4.57;;;21.00;99.90;;;;;;2106474;28;20036;-67
2021/07/27 00:28:11;;;;;;;5.35;4.65;;;21.00;99.90;;;;;;2114087;28;20032;-67
2021/07/27 00:29:12;;;;;;;5.15;4.65;;;21.00;99.90;;;;;;2114428;28;20078;-67
2021/07/27 00:30:12;;;;;;;5.68;5.00;;;21.00;99.90;;;;;;2114630;28;20015;-67
2021/07/27 00:31:17;;;;;;;5.00;4.57;;;21.10;99.90;;;;;;2114604;28;20118;-67
2021/07/27 00:32:17;;;;;;;7.68;5.10;;;21.00;99.90;;;;;;2114358;28;20055;-67
2021/07/27 00:33:18;;;;;;;6.75;4.72;;;21.00;99.90;;;;;;2114437;28;20023;-67
2021/07/27 00:34:19;;;;;;;5.70;5.20;;;21.00;99.90;;;;;;2114601;28;20463;-67
2021/07/27 00:35:19;;;;;;;9.07;5.43;;;21.00;99.90;;;;;;2114542;28;20023;-67
2021/07/27 00:36:20;;;;;;;5.38;4.65;;;21.00;99.90;;;;;;2114351;28;20051;-67
2021/07/27 00:37:27;;;;;;;4.80;4.28;;;21.00;99.90;;;;;;2114514;28;20051;-67
2021/07/27 00:38:28;;;;;;;5.15;4.75;;;21.00;99.90;;;;;;2114506;28;20023;-67
2021/07/27 00:39:29;;;;;;;5.47;4.90;;;21.00;99.90;;;;;;2114645;28;20111;-68
2021/07/27 00:40:29;;;;;;;5.13;4.63;;;21.00;99.90;;;;;;2107290;28;20067;-67
2021/07/27 00:41:30;;;;;;;6.38;4.88;;;21.10;99.90;;;;;;2105835;28;20028;-67
2021/07/27 00:42:31;;;;;;;7.03;4.85;;;21.00;99.90;;;;;;2105674;28;20108;-67
2021/07/27 00:43:32;;;;;;;5.20;4.70;;;21.00;99.90;;;;;;2105797;28;20027;-67
2021/07/27 00:44:32;;;;;;;6.93;4.60;;;21.00;99.90;;;;;;2105911;28;20020;-67
2021/07/27 00:45:33;;;;;;;7.55;4.95;;;21.00;99.90;;;;;;2105995;28;20024;-67
2021/07/27 00:46:34;;;;;;;5.75;4.40;;;21.00;99.90;;;;;;2105770;28;20475;-67
2021/07/27 00:47:34;;;;;;;5.90;5.18;;;21.00;99.90;;;;;;2106236;28;20058;-68
2021/07/27 00:48:35;;;;;;;5.00;3.90;;;21.00;99.90;;;;;;2105147;28;20480;-68
2021/07/27 00:49:37;;;;;;;6.78;4.80;;;21.10;99.90;;;;;;2105338;28;20157;-68
2021/07/27 00:50:38;;;;;;;6.35;4.65;;;21.00;99.90;;;;;;2105214;28;20027;-68
2021/07/27 00:51:40;;;;;;;6.35;4.90;;;21.00;99.90;;;;;;2104990;28;20020;-68
2021/07/27 00:52:40;;;;;;;4.95;4.50;;;21.00;99.90;;;;;;2100578;28;20020;-68
2021/07/27 00:53:41;;;;;;;5.65;5.15;;;21.00;99.90;;;;;;2106885;28;20497;-68
2021/07/27 00:54:44;;;;;;;7.43;5.22;;;21.00;99.90;;;;;;2107311;28;20016;-68
2021/07/27 00:55:45;;;;;;;5.88;5.28;;;21.00;99.90;;;;;;2113288;28;20072;-68
2021/07/27 00:56:46;;;;;;;6.57;5.25;;;21.00;99.90;;;;;;2105298;28;20016;-68
2021/07/27 00:57:47;;;;;;;5.75;4.85;;;21.00;99.90;;;;;;2106259;28;20024;-68
2021/07/27 00:58:48;;;;;;;5.22;4.72;;;21.00;99.90;;;;;;2105866;28;20055;-68
2021/07/27 00:59:49;;;;;;;5.30;4.80;;;21.00;99.90;;;;;;2106012;28;20056;-68
2021/07/27 01:00:50;;;;;;;6.70;5.63;;;21.00;99.90;;;;;;2105887;28;20034;-68
2021/07/27 01:01:51;;;;;;;7.40;4.95;;;21.00;99.90;;;;;;2105777;28;20032;-68
2021/07/27 01:02:52;;;;;;;7.45;4.82;;;21.00;99.90;;;;;;2104437;28;20378;-68
2021/07/27 01:03:52;;;;;;;5.25;4.75;;;21.00;99.90;;;;;;2105247;28;20031;-68
2021/07/27 01:04:53;;;;;;;7.20;5.13;;;21.00;99.90;;;;;;2105794;28;20066;-68
2021/07/27 01:05:54;;;;;;;5.43;4.93;;;21.00;99.90;;;;;;2106022;28;20024;-68
2021/07/27 01:06:54;;;;;;;5.88;5.03;;;21.00;99.90;;;;;;2105885;28;20030;-68
2021/07/27 01:07:57;;;;;;;5.15;4.65;;;21.00;99.90;;;;;;2106080;28;20383;-68
2021/07/27 01:09:00;;;;;;;6.60;4.65;;;21.00;99.90;;;;;;2105728;28;20016;-68
2021/07/27 01:10:01;;;;;;;6.55;5.10;;;21.00;99.90;;;;;;2105938;28;20045;-68
2021/07/27 01:11:01;;;;;;;5.72;4.57;;;21.00;99.90;;;;;;2105892;28;20111;-68
2021/07/27 01:12:02;;;;;;;5.90;4.47;;;21.00;99.90;;;;;;2105656;28;20028;-68
2021/07/27 01:13:03;;;;;;;7.40;4.70;;;21.00;99.90;;;;;;2105285;28;20028;-68
2021/07/27 01:14:04;;;;;;;6.18;5.38;;;21.00;99.90;;;;;;2106121;28;20039;-68
2021/07/27 01:15:06;;;;;;;4.70;4.30;;;21.00;99.90;;;;;;2105757;28;20107;-68
2021/07/27 01:16:09;;;;;;;5.60;4.65;;;21.00;99.90;;;;;;2106047;28;20031;-68
2021/07/27 01:17:09;;;;;;;7.20;5.38;;;21.00;99.90;;;;;;2105816;28;20024;-68
2021/07/27 01:18:16;;;;;;;6.40;4.93;;;21.00;99.90;;;;;;2105894;28;20095;-68
2021/07/27 01:37:28;;;;;;;5.95;5.40;;;21.00;99.90;;;;;;2105944;28;20559;-68
2021/07/27 01:40:23;;;;;;;9.23;7.18;;;20.80;99.90;;;;;;2105729;28;20446;-69
2021/07/27 01:42:25;;;;;;;12.52;10.90;;;20.80;99.90;;;;;;2105517;28;20028;-69
2021/07/27 01:43:30;;;;;;;10.60;9.10;;;20.80;99.90;;;;;;2105533;28;20028;-69
2021/07/27 01:44:32;;;;;;;11.32;9.38;;;20.90;99.90;;;;;;2105651;28;20368;-70
2021/07/27 01:45:33;;;;;;;11.15;10.15;;;20.80;99.90;;;;;;2105657;28;20021;-70
2021/07/27 01:46:34;;;;;;;15.20;11.45;;;20.80;99.90;;;;;;2113401;28;20031;-70
2021/07/27 01:47:34;;;;;;;11.73;10.45;;;20.80;99.90;;;;;;2113647;28;20027;-69
2021/07/27 01:48:35;;;;;;;11.40;9.88;;;20.80;99.90;;;;;;2105573;28;20467;-69
2021/07/27 01:49:46;;;;;;;13.27;10.60;;;20.80;99.90;;;;;;2105544;28;20398;-70
2021/07/27 01:50:46;;;;;;;11.68;9.75;;;20.80;99.90;;;;;;2102547;28;20578;-69
2021/07/27 01:51:47;;;;;;;12.75;10.57;;;20.80;99.90;;;;;;2105145;28;20016;-69
2021/07/27 01:52:48;;;;;;;10.95;9.85;;;20.80;99.90;;;;;;2104347;28;20020;-69
2021/07/27 01:53:51;;;;;;;10.38;9.18;;;20.80;99.90;;;;;;2111846;28;20102;-69
2021/07/27 01:54:54;;;;;;;10.25;8.70;;;20.80;99.90;;;;;;2108774;28;20455;-69
2021/07/27 01:55:55;;;;;;;9.88;8.88;;;20.80;99.90;;;;;;2107538;28;20031;-69
2021/07/27 01:56:56;;;;;;;10.02;9.00;;;20.80;99.90;;;;;;2107309;28;20530;-69
2021/07/27 01:57:57;;;;;;;9.70;8.80;;;20.80;99.90;;;;;;2107456;28;20012;-70
2021/07/27 01:58:58;;;;;;;10.32;8.77;;;20.80;99.90;;;;;;2107100;28;20027;-69
2021/07/27 01:59:58;;;;;;;9.43;8.50;;;20.80;99.90;;;;;;2107428;28;20062;-69
2021/07/27 02:00:59;;;;;;;9.85;8.85;;;20.80;99.90;;;;;;2107028;28;20047;-69
2021/07/27 02:01:59;;;;;;;10.15;7.30;;;20.80;99.90;;;;;;2107045;28;20060;-69
2021/07/27 02:03:00;;;;;;;9.02;8.05;;;20.70;99.90;;;;;;2107005;28;20028;-69
2021/07/27 02:04:00;;;;;;;9.15;8.18;;;20.80;99.90;;;;;;2107448;28;20486;-69
2021/07/27 02:05:01;;;;;;;11.23;9.25;;;20.80;99.90;;;;;;2107159;28;20341;-69
2021/07/27 02:06:01;;;;;;;10.07;9.07;;;20.70;99.90;;;;;;2107393;28;20024;-69
2021/07/27 02:07:02;;;;;;;9.45;8.55;;;20.70;99.90;;;;;;2107051;28;20473;-69
2021/07/27 02:08:03;;;;;;;10.20;8.93;;;20.70;99.90;;;;;;2107411;28;20036;-69
2021/07/27 02:09:06;;;;;;;10.65;9.23;;;20.80;99.90;;;;;;2114919;28;20020;-69
2021/07/27 02:10:11;;;;;;;9.45;8.45;;;20.70;99.90;;;;;;2114990;28;20056;-69
2021/07/27 02:11:14;;;;;;;9.82;8.93;;;20.70;99.90;;;;;;2106892;28;20020;-69
2021/07/27 02:12:23;;;;;;;9.90;8.90;;;20.70;99.90;;;;;;2106960;28;20024;-69
2021/07/27 02:13:31;;;;;;;9.77;8.63;;;20.70;99.90;;;;;;2106825;28;20460;-69
2021/07/27 02:15:04;;;;;;;9.80;8.80;;;20.60;99.90;;;;;;2107327;28;20062;-69
2021/07/27 02:15:55;;;;;;;8.45;7.65;;;20.60;99.90;;;;;;2107156;28;20060;-70
2021/07/27 02:16:56;;;;;;;11.10;9.75;;;20.60;99.90;;;;;;2107194;28;20016;-69
2021/07/27 02:17:56;;;;;;;11.15;9.70;;;20.60;99.90;;;;;;2107177;28;20124;-69
2021/07/27 02:19:00;;;;;;;11.35;10.18;;;20.60;99.90;;;;;;2107234;28;20023;-69
2021/07/27 02:20:01;;;;;;;10.95;9.65;;;20.60;99.90;;;;;;2099062;28;20159;-69
2021/07/27 02:21:02;;;;;;;11.32;10.13;;;20.60;99.90;;;;;;2101422;28;20483;-69
2021/07/27 02:22:04;;;;;;;14.35;11.55;;;20.60;99.90;;;;;;2106078;28;20482;-69
2021/07/27 02:23:05;;;;;;;13.27;11.95;;;20.50;99.90;;;;;;2106552;28;20038;-69
2021/07/27 02:24:06;;;;;;;13.30;11.68;;;20.50;99.90;;;;;;2107201;28;20027;-69
2021/07/27 02:25:09;;;;;;;14.38;12.88;;;20.50;99.90;;;;;;2107203;28;20028;-69
2021/07/27 02:26:09;;;;;;;14.30;12.80;;;20.50;99.90;;;;;;2107037;28;20083;-69
2021/07/27 02:27:11;;;;;;;17.60;15.75;;;20.50;99.90;;;;;;2107150;28;20024;-69
2021/07/27 02:28:15;;;;;;;12.95;11.68;;;20.50;99.90;;;;;;2107337;28;20051;-69
2021/07/27 02:29:16;;;;;;;15.98;14.45;;;20.50;99.90;;;;;;2107277;28;20024;-69
2021/07/27 02:30:17;;;;;;;17.55;15.85;;;20.50;99.90;;;;;;2107125;28;20044;-69
2021/07/27 02:31:36;;;;;;;18.65;16.23;;;20.50;99.90;;;;;;2106932;28;20043;-69
2021/07/27 02:32:36;;;;;;;16.42;14.82;;;20.50;99.90;;;;;;2103296;28;20111;-69
2021/07/27 02:33:37;;;;;;;13.65;12.18;;;20.50;99.90;;;;;;2107247;28;20027;-69
2021/07/27 02:34:38;;;;;;;18.65;16.75;;;20.40;99.90;;;;;;2107212;28;20073;-69
2021/07/27 02:35:42;;;;;;;19.45;17.25;;;20.40;99.90;;;;;;2106734;28;20055;-69
2021/07/27 02:36:42;;;;;;;18.98;16.63;;;20.40;99.90;;;;;;2107433;28;20068;-69
2021/07/27 02:37:43;;;;;;;17.75;16.13;;;20.40;99.90;;;;;;2106967;28;20044;-69
2021/07/27 02:38:44;;;;;;;21.80;11.80;;;20.40;99.90;;;;;;2106954;28;20027;-69
2021/07/27 02:39:45;;;;;;;18.92;17.05;;;20.40;99.90;;;;;;2106974;28;20030;-69
2021/07/27 02:40:45;;;;;;;18.05;16.20;;;20.40;99.90;;;;;;2107186;28;20020;-69
2021/07/27 02:41:46;;;;;;;19.52;17.70;;;20.40;99.90;;;;;;2107151;28;20704;-69
2021/07/27 02:42:48;;;;;;;21.63;19.45;;;20.50;99.90;;;;;;2106676;28;20032;-69
2021/07/27 02:43:48;;;;;;;25.27;22.38;;;20.40;99.90;;;;;;2107206;28;20039;-69
2021/07/27 02:44:49;;;;;;;18.52;16.63;;;20.40;99.90;;;;;;2107103;28;20028;-69
2021/07/27 02:45:49;;;;;;;23.88;20.80;;;20.40;99.90;;;;;;2106941;28;20055;-69
2021/07/27 02:46:51;;;;;;;23.95;21.45;;;20.40;99.90;;;;;;2107007;28;20478;-69
2021/07/27 02:47:52;;;;;;;26.10;23.27;;;20.40;99.90;;;;;;2106970;28;20020;-69
2021/07/27 02:48:52;;;;;;;24.58;21.88;;;20.40;99.90;;;;;;2106532;28;20016;-69
2021/07/27 02:49:53;;;;;;;24.77;22.23;;;20.40;99.90;;;;;;2106411;28;20020;-69
2021/07/27 02:51:03;;;;;;;27.35;22.30;;;20.40;99.90;;;;;;2106155;28;20016;-69
2021/07/27 02:52:03;;;;;;;;;;;20.40;99.90;;;;;;2106719;28;20016;-69
2021/07/27 02:53:04;;;;;;;27.02;24.25;;;20.20;99.90;;;;;;2106361;28;19990;-69
2021/07/27 02:54:07;;;;;;;20.92;18.88;;;20.20;99.90;;;;;;2107193;28;20050;-69
2021/07/27 02:55:08;;;;;;;27.92;24.98;;;20.30;99.90;;;;;;2106202;28;20498;-69
2021/07/27 02:56:09;;;;;;;28.95;25.98;;;20.30;99.90;;;;;;2106447;28;20505;-69
2021/07/27 02:57:09;;;;;;;30.73;25.65;;;20.30;99.90;;;;;;2106929;28;20016;-69
2021/07/27 02:58:10;;;;;;;26.65;23.95;;;20.30;99.90;;;;;;2106858;28;20024;-69
2021/07/27 02:59:10;;;;;;;30.92;27.35;;;20.30;99.90;;;;;;2106769;28;20046;-69
2021/07/27 03:00:11;;;;;;;27.95;22.10;;;20.30;99.90;;;;;;2108248;28;20471;-69
2021/07/27 03:01:12;;;;;;;29.17;26.10;;;20.30;99.90;;;;;;2106767;28;20451;-69
2021/07/27 03:02:24;;;;;;;31.17;27.92;;;20.30;99.90;;;;;;2106838;28;20024;-69
2021/07/27 03:03:25;;;;;;;26.13;23.42;;;20.20;99.90;;;;;;2106419;28;20024;-69
2021/07/27 03:04:25;;;;;;;31.30;27.30;;;20.20;99.90;;;;;;2107062;28;20032;-69
2021/07/27 03:05:26;;;;;;;24.83;21.83;;;20.20;99.90;;;;;;2106304;28;20016;-69
2021/07/27 03:06:31;;;;;;;27.98;23.90;;;20.20;99.90;;;;;;2106944;28;20055;-69
2021/07/27 03:07:35;;;;;;;31.45;26.55;;;20.20;99.90;;;;;;2106594;28;20028;-69
2021/07/27 03:09:02;;;;;;;26.27;23.55;;;20.20;99.90;;;;;;2106771;28;20121;-69
2021/07/27 03:10:19;;;;;;;23.88;20.08;;;20.20;99.90;;;;;;2107040;28;20412;-69
2021/07/27 03:11:19;;;;;;;26.08;23.38;;;20.20;99.90;;;;;;2106717;28;20020;-69
2021/07/27 03:12:20;;;;;;;29.80;26.67;;;20.20;99.90;;;;;;2106267;28;20099;-69
2021/07/27 03:13:20;;;;;;;29.48;25.20;;;20.10;99.90;;;;;;2105554;28;20028;-69
2021/07/27 03:14:21;;;;;;;28.83;24.85;;;20.20;99.90;;;;;;2109992;28;20091;-69
2021/07/27 03:15:24;;;;;;;33.75;28.67;;;20.10;99.90;;;;;;2114568;28;20102;-69
2021/07/27 03:16:25;;;;;;;35.88;29.58;;;20.10;99.90;;;;;;2114697;28;20141;-69
2021/07/27 03:17:26;;;;;;;36.70;30.52;;;20.10;99.90;;;;;;2114815;27;20020;-69
2021/07/27 03:18:27;;;;;;;33.72;29.40;;;20.10;99.90;;;;;;2115498;28;20062;-69
2021/07/27 03:19:27;;;;;;;31.67;27.42;;;20.10;99.90;;;;;;2115098;27;20022;-69
2021/07/27 03:20:29;;;;;;;35.03;28.23;;;20.10;99.90;;;;;;2114688;28;20028;-69
2021/07/27 03:21:30;;;;;;;30.17;24.35;;;20.10;99.90;;;;;;2114105;28;20023;-69
2021/07/27 03:22:30;;;;;;;34.08;28.25;;;20.10;99.90;;;;;;2115253;28;20028;-69
2021/07/27 03:23:31;;;;;;;34.80;28.73;;;20.10;99.90;;;;;;2114787;28;20072;-69
2021/07/27 03:24:31;;;;;;;36.45;29.50;;;20.10;99.90;;;;;;2115163;28;20028;-69
2021/07/27 03:25:32;;;;;;;32.05;28.63;;;20.10;99.90;;;;;;2115092;28;20027;-69
2021/07/27 03:26:32;;;;;;;30.45;25.02;;;20.00;99.90;;;;;;2115204;28;20031;-69
2021/07/27 03:27:33;;;;;;;23.08;20.13;;;20.00;99.90;;;;;;2111188;28;20024;-69
2021/07/27 03:28:33;;;;;;;31.08;27.77;;;20.00;99.90;;;;;;2106575;28;20032;-69
2021/07/27 03:29:35;;;;;;;24.13;20.42;;;20.00;99.90;;;;;;2106838;28;20021;-69
2021/07/27 03:30:35;;;;;;;27.65;24.75;;;20.00;99.90;;;;;;2106701;28;20420;-69
2021/07/27 03:31:36;;;;;;;31.52;25.40;;;20.00;99.90;;;;;;2106546;28;20093;-70
2021/07/27 03:32:37;;;;;;;32.25;25.58;;;20.00;99.90;;;;;;2105951;28;20028;-70
2021/07/27 03:33:37;;;;;;;24.90;22.10;;;20.00;99.90;;;;;;2106624;28;20080;-69
2021/07/27 03:34:38;;;;;;;28.63;24.58;;;20.00;99.90;;;;;;2106619;28;20486;-69
2021/07/27 03:35:38;;;;;;;25.10;21.67;;;20.00;99.90;;;;;;2106724;28;20035;-70
2021/07/27 03:36:39;;;;;;;28.25;23.92;;;20.00;99.90;;;;;;2106538;28;20039;-69
2021/07/27 03:37:39;;;;;;;28.20;23.58;;;20.00;99.90;;;;;;2106779;28;20028;-69
2021/07/27 03:38:40;;;;;;;22.17;19.85;;;20.00;99.90;;;;;;2106485;28;20070;-70
2021/07/27 03:39:41;;;;;;;25.02;22.33;;;20.00;99.90;;;;;;2106798;28;20047;-70
2021/07/27 03:40:42;;;;;;;26.80;20.95;;;20.00;99.90;;;;;;2106511;28;20024;-70
2021/07/27 03:41:42;;;;;;;21.67;18.77;;;20.00;99.90;;;;;;2106158;28;20031;-70
2021/07/27 03:42:44;;;;;;;21.00;18.83;;;20.00;99.90;;;;;;2097608;28;20020;-70
2021/07/27 03:43:44;;;;;;;22.83;20.42;;;20.00;99.90;;;;;;2101877;28;20020;-69
2021/07/27 03:44:46;;;;;;;21.02;18.83;;;20.00;99.90;;;;;;2106544;28;20028;-69
2021/07/27 03:45:46;;;;;;;27.27;21.63;;;20.00;99.90;;;;;;2097619;28;20036;-69
2021/07/27 03:46:47;;;;;;;21.05;18.52;;;20.00;99.90;;;;;;2097455;28;20531;-69
2021/07/27 03:47:47;;;;;;;23.00;19.85;;;20.00;99.90;;;;;;2098312;28;20032;-69
2021/07/27 03:48:49;;;;;;;21.15;18.42;;;20.10;99.90;;;;;;2103449;28;20028;-69
2021/07/27 03:49:50;;;;;;;20.77;18.67;;;20.00;99.90;;;;;;2105565;28;20016;-69
2021/07/27 03:50:51;;;;;;;22.23;19.85;;;20.10;99.90;;;;;;2110718;28;20028;-69
2021/07/27 03:51:51;;;;;;;22.00;19.52;;;20.10;99.90;;;;;;2106023;28;20020;-69
2021/07/27 03:52:52;;;;;;;23.33;20.08;;;20.00;99.90;;;;;;2106110;28;20016;-69
2021/07/27 03:53:52;;;;;;;21.73;19.30;;;20.00;99.90;;;;;;2106259;28;20016;-69
2021/07/27 03:54:53;;;;;;;22.17;18.52;;;20.00;99.90;;;;;;2106304;28;20051;-69
2021/07/27 03:55:53;;;;;;;24.83;19.25;;;20.00;99.90;;;;;;2106041;28;20361;-69
2021/07/27 03:56:54;;;;;;;24.08;19.30;;;20.00;99.90;;;;;;2103964;28;20027;-69
2021/07/27 03:57:55;;;;;;;22.40;18.48;;;20.00;99.90;;;;;;2106582;28;20169;-69
2021/07/27 03:58:56;;;;;;;21.50;18.05;;;20.00;99.90;;;;;;2113341;28;20131;-69
2021/07/27 03:59:56;;;;;;;20.98;17.88;;;20.00;99.90;;;;;;2110803;28;20019;-69
2021/07/27 04:00:57;;;;;;;21.33;18.83;;;20.00;99.90;;;;;;2114108;28;20051;-69
2021/07/27 04:01:57;;;;;;;19.73;17.52;;;20.00;99.90;;;;;;2107910;28;20039;-69
2021/07/27 04:02:58;;;;;;;21.30;17.85;;;20.00;99.90;;;;;;2105951;28;20463;-69
2021/07/27 04:03:58;;;;;;;21.27;17.92;;;20.00;99.90;;;;;;2106497;28;20039;-69
2021/07/27 04:05:08;;;;;;;19.95;16.52;;;20.00;99.90;;;;;;2106438;28;20024;-69
2021/07/27 04:06:08;;;;;;;22.85;19.05;;;20.10;99.90;;;;;;2106369;28;20031;-69
2021/07/27 04:07:09;;;;;;;19.65;17.20;;;20.00;99.90;;;;;;2106557;28;20032;-69
2021/07/27 04:08:10;;;;;;;20.42;18.42;;;20.10;99.90;;;;;;2105659;28;20058;-69
2021/07/27 04:09:10;;;;;;;25.67;19.67;;;20.00;99.90;;;;;;2105450;28;20036;-69
2021/07/27 04:10:11;;;;;;;20.05;17.15;;;20.00;99.90;;;;;;2113429;28;20062;-69
2021/07/27 04:11:13;;;;;;;21.30;19.10;;;20.00;99.90;;;;;;2114353;28;20440;-69
2021/07/27 04:12:13;;;;;;;24.88;19.50;;;20.00;99.90;;;;;;2102870;28;20024;-69
2021/07/27 04:13:14;;;;;;;22.92;19.05;;;20.00;99.90;;;;;;2103992;28;20044;-69
2021/07/27 04:14:14;;;;;;;21.10;17.65;;;20.00;99.90;;;;;;2103674;28;20021;-69
2021/07/27 04:15:15;;;;;;;17.60;15.70;;;20.00;99.90;;;;;;2103269;28;20029;-69
2021/07/27 04:16:16;;;;;;;20.42;18.20;;;20.10;99.90;;;;;;2105603;28;20027;-69
2021/07/27 04:17:20;;;;;;;19.52;17.50;;;20.00;99.90;;;;;;2105446;28;20391;-69
2021/07/27 04:18:21;;;;;;;20.92;18.65;;;20.00;99.90;;;;;;2106073;28;20028;-69
2021/07/27 04:19:21;;;;;;;22.50;17.77;;;20.00;99.90;;;;;;2106867;28;20039;-69
2021/07/27 04:20:22;;;;;;;19.63;17.52;;;20.00;99.90;;;;;;2107299;28;20016;-69
2021/07/27 04:21:23;;;;;;;22.30;19.83;;;20.00;99.90;;;;;;2109296;28;20446;-69
2021/07/27 04:22:24;;;;;;;20.52;17.85;;;20.00;99.90;;;;;;2114053;28;20080;-69
2021/07/27 04:23:25;;;;;;;23.08;19.05;;;20.00;99.90;;;;;;2109116;28;20088;-70
2021/07/27 04:24:28;;;;;;;22.23;18.88;;;20.00;99.90;;;;;;2111704;28;20149;-69
2021/07/27 04:25:30;;;;;;;20.02;17.92;;;20.00;99.90;;;;;;2112238;27;20501;-69
2021/07/27 04:26:30;;;;;;;22.55;17.75;;;20.00;99.90;;;;;;2114288;28;20169;-69
2021/07/27 04:27:31;;;;;;;20.95;17.48;;;20.00;99.90;;;;;;2114856;28;20085;-69
2021/07/27 04:28:31;;;;;;;19.63;17.52;;;20.00;99.90;;;;;;2114489;28;20043;-70
2021/07/27 04:29:33;;;;;;;18.73;16.83;;;20.00;99.90;;;;;;2114846;28;20034;-69
2021/07/27 04:30:34;;;;;;;19.73;17.65;;;20.00;99.90;;;;;;2113322;28;20038;-69
2021/07/27 04:31:34;;;;;;;22.08;18.77;;;20.00;99.90;;;;;;2109854;28;20035;-70
2021/07/27 04:32:35;;;;;;;20.70;17.90;;;20.00;99.90;;;;;;2104638;28;20376;-69
2021/07/27 04:33:37;;;;;;;21.63;19.05;;;20.00;99.90;;;;;;2107617;28;20020;-69
2021/07/27 04:34:38;;;;;;;21.40;19.10;;;20.00;99.90;;;;;;2113466;28;20579;-69
2021/07/27 04:35:38;;;;;;;20.05;17.52;;;20.00;99.90;;;;;;2105688;28;20560;-69
2021/07/27 04:36:40;;;;;;;19.42;17.50;;;20.00;99.90;;;;;;2105357;28;20103;-69
2021/07/27 04:37:41;;;;;;;18.92;16.98;;;20.00;99.90;;;;;;2101148;28;20016;-69
2021/07/27 04:38:41;;;;;;;21.98;18.70;;;20.00;99.90;;;;;;2101633;28;20024;-69
2021/07/27 04:39:42;;;;;;;21.17;18.50;;;20.10;99.90;;;;;;2098096;28;20008;-69
2021/07/27 04:40:42;;;;;;;21.75;17.20;;;20.10;99.90;;;;;;2100003;28;20020;-69
2021/07/27 04:41:43;;;;;;;18.70;16.80;;;20.10;99.90;;;;;;2098500;28;20023;-69
2021/07/27 04:42:44;;;;;;;21.10;18.40;;;20.10;99.90;;;;;;2097627;28;20087;-69
2021/07/27 04:43:44;;;;;;;20.10;18.10;;;20.10;99.90;;;;;;2097752;28;20151;-69
2021/07/27 04:44:45;;;;;;;23.60;18.98;;;20.10;99.90;;;;;;2097341;28;20020;-69
2021/07/27 04:45:45;;;;;;;20.40;17.13;;;20.20;99.90;;;;;;2098007;28;20043;-69
2021/07/27 04:46:47;;;;;;;19.80;17.65;;;20.20;99.90;;;;;;2098902;28;20443;-69
2021/07/27 04:47:48;;;;;;;20.17;16.83;;;20.20;99.90;;;;;;2097883;28;20341;-69
2021/07/27 04:48:48;;;;;;;20.33;17.70;;;20.20;99.90;;;;;;2105776;28;20055;-69
2021/07/27 04:49:49;;;;;;;19.33;17.33;;;20.20;99.90;;;;;;2104766;28;20402;-69
2021/07/27 04:50:49;;;;;;;19.77;17.00;;;20.30;99.90;;;;;;2103087;28;20218;-69
2021/07/27 04:51:50;;;;;;;23.00;18.02;;;20.30;99.90;;;;;;2104751;28;20020;-69
2021/07/27 04:52:57;;;;;;;20.05;17.67;;;20.30;99.90;;;;;;2105190;28;20569;-69
2021/07/27 04:53:58;;;;;;;18.08;16.25;;;20.30;99.90;;;;;;2103629;28;20364;-69
2021/07/27 04:54:59;;;;;;;18.98;16.98;;;20.30;99.90;;;;;;2104058;28;20020;-69
2021/07/27 04:56:01;;;;;;;19.50;17.50;;;20.30;99.90;;;;;;2105759;28;20069;-69
2021/07/27 04:57:01;;;;;;;20.15;17.90;;;20.30;99.90;;;;;;2104426;28;20016;-69
2021/07/27 04:58:03;;;;;;;20.35;18.25;;;20.30;99.90;;;;;;2103396;28;20464;-69
2021/07/27 04:59:03;;;;;;;20.75;18.65;;;20.40;99.90;;;;;;2098615;28;20024;-69
2021/07/27 05:00:25;;;;;;;17.92;16.00;;;20.40;99.90;;;;;;2102312;28;20030;-69
2021/07/27 05:01:25;;;;;;;19.88;17.83;;;20.40;99.90;;;;;;2101038;28;20020;-69
2021/07/27 05:02:26;;;;;;;20.92;18.63;;;20.40;99.90;;;;;;2105626;28;20039;-69
2021/07/27 05:03:26;;;;;;;22.27;18.73;;;20.40;99.90;;;;;;2105264;28;20020;-69
2021/07/27 05:04:27;;;;;;;20.83;18.73;;;20.40;99.90;;;;;;2103981;28;20028;-69
2021/07/27 05:05:28;;;;;;;20.52;18.25;;;20.40;99.90;;;;;;2097166;28;20471;-69
2021/07/27 05:06:28;;;;;;;21.20;19.08;;;20.40;99.90;;;;;;2102836;28;20020;-69
2021/07/27 05:07:29;;;;;;;20.65;18.55;;;20.50;99.90;;;;;;2103933;28;20040;-69
2021/07/27 05:08:30;;;;;;;19.02;16.98;;;20.50;99.90;;;;;;2108673;28;20135;-69
2021/07/27 05:09:30;;;;;;;18.90;16.92;;;20.50;99.90;;;;;;2101017;28;20133;-69
2021/07/27 05:10:31;;;;;;;19.05;17.15;;;20.50;99.90;;;;;;2104781;28;20069;-69
2021/07/27 05:11:32;;;;;;;19.80;17.80;;;20.50;99.90;;;;;;2101341;28;20035;-69
2021/07/27 05:12:35;;;;;;;20.17;17.88;;;20.50;99.90;;;;;;2103629;28;20622;-69
2021/07/27 05:13:37;;;;;;;20.27;18.10;;;20.50;99.90;;;;;;2101121;28;20053;-69
2021/07/27 05:14:37;;;;;;;22.20;19.30;;;20.60;99.90;;;;;;2103016;28;20069;-69
2021/07/27 05:15:38;;;;;;;17.92;16.23;;;20.60;99.90;;;;;;2104338;28;20066;-69
2021/07/27 05:16:39;;;;;;;20.70;18.33;;;20.60;99.90;;;;;;2104175;28;20107;-69
2021/07/27 05:17:39;;;;;;;21.92;19.20;;;20.70;99.90;;;;;;2104692;28;20497;-69
2021/07/27 05:18:40;;;;;;;23.17;19.45;;;20.70;99.90;;;;;;2103897;28;20073;-69
2021/07/27 05:19:53;;;;;;;25.60;19.52;;;20.70;99.90;;;;;;2105068;28;20380;-69
2021/07/27 05:20:54;;;;;;;21.20;18.95;;;20.80;99.90;;;;;;2104298;28;20639;-69
2021/07/27 05:21:54;;;;;;;21.42;18.65;;;20.80;99.90;;;;;;2105081;28;20500;-68
2021/07/27 05:22:57;;;;;;;20.80;18.30;;;20.80;99.90;;;;;;2103541;28;20024;-69
2021/07/27 05:23:57;;;;;;;19.23;17.40;;;20.80;99.90;;;;;;2104298;28;20550;-69
2021/07/27 05:24:58;;;;;;;21.05;18.85;;;20.80;99.90;;;;;;2103850;28;20510;-69
2021/07/27 05:25:59;;;;;;;22.10;19.70;;;20.90;99.90;;;;;;2105083;28;20091;-69
2021/07/27 05:26:59;;;;;;;24.20;19.27;;;20.90;99.90;;;;;;2104706;28;20483;-69
2021/07/27 05:28:00;;;;;;;20.23;18.15;;;20.90;99.90;;;;;;2104181;28;20150;-69
2021/07/27 05:29:00;;;;;;;23.77;19.38;;;20.90;99.90;;;;;;2102407;28;20028;-69
2021/07/27 05:30:02;;;;;;;19.48;17.58;;;21.00;99.90;;;;;;2102789;28;20446;-69
2021/07/27 05:31:06;;;;;;;20.98;18.77;;;21.00;99.90;;;;;;2103111;28;20024;-69
2021/07/27 05:32:06;;;;;;;22.25;19.80;;;21.00;99.90;;;;;;2104269;28;20016;-69
2021/07/27 05:33:07;;;;;;;24.85;19.67;;;21.10;99.90;;;;;;2102316;28;20640;-69
2021/07/27 05:34:08;;;;;;;25.65;22.15;;;21.10;99.90;;;;;;2101202;28;20551;-69
2021/07/27 05:35:10;;;;;;;20.48;18.42;;;21.10;99.90;;;;;;2103715;28;20028;-68
2021/07/27 05:36:11;;;;;;;21.92;19.75;;;21.10;99.90;;;;;;2104386;28;20027;-68